ZKDAY YBMA-YCMW

Flight info

Callsign ZKDAY
Flight time N/A
Altitude 2500
Route VFR
Aircraft C172/L-SGO/C

Departure

Time 2026-04-15 20:47
Airport Mount Isa Airport (YBMA)

Arrival

Time N/A
Airport Camooweal Airport (YCMW)
Time Latitude Longitude Altitude Speed Heading
2026-04-15 20:34 -20.66840 139.49118 1111 ft 0 kts 253°
2026-04-15 20:43 -20.66854 139.49068 1108 ft 11 kts 255°
2026-04-15 20:43 -20.66841 139.49007 1111 ft 9 kts 345°
2026-04-15 20:43 -20.66754 139.48985 1109 ft 16 kts 348°
2026-04-15 20:43 -20.66625 139.48956 1104 ft 21 kts 347°
2026-04-15 20:44 -20.66520 139.48930 1107 ft 5 kts 332°
2026-04-15 20:44 -20.66510 139.48911 1111 ft 6 kts 261°
2026-04-15 20:44 -20.66511 139.48908 1111 ft 0 kts 248°
2026-04-15 20:44 -20.66516 139.48884 1111 ft 10 kts 257°
2026-04-15 20:45 -20.66572 139.48835 1110 ft 11 kts 169°
2026-04-15 20:45 -20.66584 139.48838 1111 ft 0 kts 166°
2026-04-15 20:46 -20.66628 139.48849 1108 ft 23 kts 168°
2026-04-15 20:46 -20.66925 139.48917 1109 ft 63 kts 168°
2026-04-15 20:46 -20.67432 139.49035 1188 ft 80 kts 165°
2026-04-15 20:47 -20.68003 139.49181 1312 ft 87 kts 166°
2026-04-15 20:47 -20.68608 139.49332 1468 ft 90 kts 165°
2026-04-15 20:47 -20.69153 139.49614 1652 ft 85 kts 111°
2026-04-15 20:47 -20.69096 139.50198 1839 ft 82 kts 75°
2026-04-15 20:48 -20.68904 139.50758 2033 ft 78 kts 66°
2026-04-15 20:48 -20.68438 139.51024 2075 ft 94 kts
2026-04-15 20:48 -20.67719 139.50968 2063 ft 110 kts 355°
2026-04-15 20:48 -20.66949 139.50839 2137 ft 113 kts 351°
2026-04-15 20:49 -20.66202 139.50627 2254 ft 111 kts 343°
2026-04-15 20:49 -20.65484 139.50350 2383 ft 109 kts 341°
2026-04-15 20:49 -20.64724 139.50020 2266 ft 125 kts 340°
2026-04-15 20:49 -20.63953 139.49647 2351 ft 122 kts 335°
2026-04-15 20:50 -20.63274 139.49111 2388 ft 123 kts 310°
2026-04-15 20:50 -20.62833 139.48318 2413 ft 124 kts 301°
2026-04-15 20:50 -20.62347 139.47580 2437 ft 124 kts 324°
2026-04-15 20:50 -20.61567 139.47200 2468 ft 123 kts 343°
2026-04-15 20:51 -20.60774 139.46900 2488 ft 120 kts 342°
2026-04-15 20:51 -20.60004 139.46590 2532 ft 117 kts 341°
2026-04-15 20:51 -20.59237 139.46286 2524 ft 119 kts 342°
2026-04-15 20:51 -20.58460 139.45983 2515 ft 119 kts 342°
2026-04-15 20:52 -20.57684 139.45695 2538 ft 118 kts 342°
2026-04-15 20:52 -20.56906 139.45402 2495 ft 121 kts 342°
2026-04-15 20:52 -20.56106 139.45120 2475 ft 120 kts 345°
2026-04-15 20:52 -20.55574 139.44957 2464 ft 120 kts 346°
2026-04-15 20:53 -20.54764 139.44722 2439 ft 121 kts 347°
2026-04-15 20:53 -20.53956 139.44498 2434 ft 119 kts 348°
2026-04-15 20:53 -20.53146 139.44300 2398 ft 119 kts 350°
2026-04-15 20:53 -20.52329 139.44126 2388 ft 119 kts 351°
2026-04-15 20:54 -20.51518 139.43968 2394 ft 119 kts 353°
2026-04-15 20:54 -20.50697 139.43848 2377 ft 119 kts 355°
2026-04-15 20:54 -20.49876 139.43752 2389 ft 119 kts 356°
2026-04-15 20:54 -20.49074 139.43543 2405 ft 120 kts 343°
2026-04-15 20:55 -20.48302 139.43182 2375 ft 122 kts 335°
2026-04-15 20:55 -20.47571 139.42728 2394 ft 120 kts 331°
2026-04-15 20:55 -20.46874 139.42226 2397 ft 120 kts 327°
2026-04-15 20:55 -20.46218 139.41679 2398 ft 120 kts 323°
2026-04-15 20:56 -20.45571 139.41100 2374 ft 122 kts 322°
2026-04-15 20:56 -20.44938 139.40508 2393 ft 121 kts 321°
2026-04-15 20:56 -20.44314 139.39898 2366 ft 122 kts 320°
2026-04-15 20:56 -20.43686 139.39285 2377 ft 122 kts 321°
2026-04-15 20:57 -20.43058 139.38684 2407 ft 121 kts 321°
2026-04-15 20:57 -20.42434 139.38080 2404 ft 122 kts 320°
2026-04-15 20:57 -20.41805 139.37472 2384 ft 122 kts 322°
2026-04-15 20:57 -20.41149 139.36898 2390 ft 120 kts 323°
2026-04-15 20:58 -20.40516 139.36324 2392 ft 121 kts 322°
2026-04-15 20:58 -20.39886 139.35714 2364 ft 123 kts 319°
2026-04-15 20:58 -20.39286 139.35077 2384 ft 121 kts 313°
2026-04-15 20:58 -20.38959 139.34250 2378 ft 122 kts 284°
2026-04-15 20:59 -20.38802 139.33361 2371 ft 123 kts 281°
2026-04-15 20:59 -20.38698 139.32462 2372 ft 123 kts 276°
2026-04-15 20:59 -20.38644 139.31546 2358 ft 123 kts 274°
2026-04-15 20:59 -20.38607 139.30623 2324 ft 125 kts 275°
2026-04-15 21:00 -20.38539 139.29706 2348 ft 124 kts 275°
2026-04-15 21:00 -20.38485 139.28783 2328 ft 125 kts 276°
2026-04-15 21:00 -20.38406 139.27869 2351 ft 123 kts 276°
2026-04-15 21:00 -20.38341 139.26958 2346 ft 123 kts 274°
2026-04-15 21:01 -20.38297 139.26045 2334 ft 123 kts 273°
2026-04-15 21:01 -20.38278 139.25131 2341 ft 123 kts 271°
2026-04-15 21:01 -20.38274 139.24217 2344 ft 123 kts 271°
2026-04-15 21:01 -20.38262 139.23307 2341 ft 123 kts 270°
2026-04-15 21:02 -20.38240 139.22406 2353 ft 120 kts 274°
2026-04-15 21:02 -20.38161 139.21509 2353 ft 122 kts 277°
2026-04-15 21:02 -20.38049 139.20625 2379 ft 120 kts 281°
2026-04-15 21:02 -20.37919 139.19731 2385 ft 122 kts 275°
2026-04-15 21:03 -20.37841 139.18834 2393 ft 122 kts 279°
2026-04-15 21:03 -20.37732 139.17942 2407 ft 121 kts 276°
2026-04-15 21:03 -20.37607 139.17054 2405 ft 122 kts 284°
2026-04-15 21:03 -20.37351 139.16193 2413 ft 122 kts 289°
2026-04-15 21:04 -20.37120 139.15325 2386 ft 125 kts 293°
2026-04-15 21:04 -20.36776 139.14498 2448 ft 118 kts 295°
2026-04-15 21:04 -20.36403 139.13705 2412 ft 123 kts 300°
2026-04-15 21:04 -20.36020 139.12904 2470 ft 117 kts 300°
2026-04-15 21:05 -20.35572 139.12161 2435 ft 122 kts 308°
2026-04-15 21:05 -20.35042 139.11471 2468 ft 119 kts 317°
2026-04-15 21:05 -20.34426 139.10860 2445 ft 122 kts 322°
2026-04-15 21:05 -20.33767 139.10289 2417 ft 123 kts 325°
2026-04-15 21:06 -20.33094 139.09735 2425 ft 123 kts 326°
2026-04-15 21:06 -20.32428 139.09178 2437 ft 122 kts 322°
2026-04-15 21:06 -20.31792 139.08584 2434 ft 122 kts 320°
2026-04-15 21:06 -20.31186 139.07959 2455 ft 121 kts 315°
2026-04-15 21:07 -20.30682 139.07233 2460 ft 122 kts 305°
2026-04-15 21:07 -20.30254 139.06462 2483 ft 122 kts 300°
2026-04-15 21:07 -20.29850 139.05666 2501 ft 121 kts 300°
2026-04-15 21:07 -20.29500 139.04867 2525 ft 121 kts 294°
2026-04-15 21:08 -20.29170 139.04034 2510 ft 124 kts 294°
2026-04-15 21:08 -20.28824 139.03206 2546 ft 122 kts 298°
2026-04-15 21:08 -20.28412 139.02396 2531 ft 125 kts 301°
2026-04-15 21:08 -20.27997 139.01606 2589 ft 121 kts 303°
2026-04-15 21:09 -20.27543 139.00826 2555 ft 125 kts 305°
2026-04-15 21:09 -20.27093 139.00049 2571 ft 125 kts 304°
2026-04-15 21:09 -20.26620 138.99274 2583 ft 123 kts 308°
2026-04-15 21:09 -20.26127 138.98515 2566 ft 127 kts 307°
2026-04-15 21:10 -20.25654 138.97731 2582 ft 125 kts 304°
2026-04-15 21:10 -20.25216 138.96941 2601 ft 124 kts 304°
2026-04-15 21:10 -20.24772 138.96142 2587 ft 126 kts 306°
2026-04-15 21:10 -20.24325 138.95355 2621 ft 123 kts 304°
2026-04-15 21:11 -20.23901 138.94544 2622 ft 126 kts 302°
2026-04-15 21:11 -20.23489 138.93729 2641 ft 125 kts 304°
2026-04-15 21:11 -20.23013 138.92960 2649 ft 124 kts 311°
2026-04-15 21:11 -20.22468 138.92257 2643 ft 124 kts 316°
2026-04-15 21:12 -20.21891 138.91573 2648 ft 123 kts 319°
2026-04-15 21:12 -20.21286 138.90940 2640 ft 122 kts 322°
2026-04-15 21:12 -20.20660 138.90326 2630 ft 123 kts 324°
2026-04-15 21:12 -20.20017 138.89720 2641 ft 123 kts 325°
2026-04-15 21:13 -20.19371 138.89121 2651 ft 124 kts 324°
2026-04-15 21:13 -20.18717 138.88526 2675 ft 122 kts 326°
2026-04-15 21:13 -20.18062 138.87938 2677 ft 122 kts 326°
2026-04-15 21:13 -20.17424 138.87360 2706 ft 121 kts 324°
2026-04-15 21:14 -20.16765 138.86762 2627 ft 126 kts 326°
2026-04-15 21:14 -20.16084 138.86171 2609 ft 126 kts 325°
2026-04-15 21:14 -20.15431 138.85583 2685 ft 120 kts 325°
2026-04-15 21:14 -20.14794 138.84996 2663 ft 123 kts 325°
2026-04-15 21:15 -20.14149 138.84392 2677 ft 123 kts 324°
2026-04-15 21:15 -20.13501 138.83785 2632 ft 126 kts 325°
2026-04-15 21:15 -20.12840 138.83175 2624 ft 126 kts 325°
2026-04-15 21:15 -20.12183 138.82550 2617 ft 126 kts 323°
2026-04-15 21:16 -20.11542 138.81934 2642 ft 124 kts 323°
2026-04-15 21:16 -20.10902 138.81297 2611 ft 127 kts 322°
2026-04-15 21:16 -20.10252 138.80648 2574 ft 129 kts 322°
2026-04-15 21:16 -20.09609 138.79986 2561 ft 127 kts 320°
2026-04-15 21:17 -20.09009 138.79329 2598 ft 123 kts 319°
2026-04-15 21:17 -20.08419 138.78652 2581 ft 126 kts 314°
2026-04-15 21:17 -20.07905 138.77884 2399 ft 135 kts 309°
2026-04-15 21:17 -20.07279 138.76974 1669 ft 163 kts 309°
2026-04-15 21:18 -20.06739 138.76001 1212 ft 147 kts 299°
2026-04-15 21:18 -20.06287 138.75096 1038 ft 129 kts 298°
2026-04-15 21:18 -20.05890 138.74301 1027 ft 119 kts 299°
2026-04-15 21:18 -20.05504 138.73527 1022 ft 119 kts 299°
2026-04-15 21:19 -20.05108 138.72745 1021 ft 123 kts 301°
2026-04-15 21:19 -20.04694 138.71925 1038 ft 127 kts 301°
2026-04-15 21:19 -20.04276 138.71096 1043 ft 128 kts 299°
2026-04-15 21:19 -20.03841 138.70245 1040 ft 132 kts 300°
2026-04-15 21:20 -20.03405 138.69382 1030 ft 133 kts 298°
2026-04-15 21:20 -20.02966 138.68503 1003 ft 135 kts 299°
2026-04-15 21:20 -20.02716 138.67565 1022 ft 133 kts 275°
2026-04-15 21:20 -20.02632 138.66579 1021 ft 134 kts 276°
2026-04-15 21:21 -20.02548 138.65595 1034 ft 133 kts 276°
2026-04-15 21:21 -20.02461 138.64614 1049 ft 133 kts 275°
2026-04-15 21:21 -20.02357 138.63638 1062 ft 133 kts 279°
2026-04-15 21:21 -20.02175 138.62677 1092 ft 132 kts 284°
2026-04-15 21:22 -20.01977 138.61720 1109 ft 133 kts 283°
2026-04-15 21:22 -20.01680 138.60802 1129 ft 132 kts 275°
2026-04-15 21:22 -20.01676 138.60625 1128 ft 0 kts 269°
2026-04-15 21:23 -20.66844 139.49118 1109 ft 0 kts 78°
2026-04-15 21:25 36.32832 -112.62493 9665 ft 0 kts
2026-04-15 21:25 -20.66844 139.49118 1106 ft 0 kts 78°
2026-04-15 21:26 -19.96352 138.46025 1643 ft 0 kts 300°
2026-04-15 21:27 -20.66844 139.49118 1111 ft 0 kts 78°